createdAt,value
2023-02-21T00:01:42.464Z,3.83
2023-02-21T00:05:23.153Z,3.60
2023-02-21T00:09:02.505Z,3.40
2023-02-21T00:12:41.420Z,3.73
2023-02-21T00:16:20.700Z,4.83
2023-02-21T00:19:59.555Z,4.33
2023-02-21T00:23:40.370Z,3.23
2023-02-21T00:27:20.000Z,3.80
2023-02-21T00:30:59.173Z,4.00
2023-02-21T00:34:38.454Z,3.90
2023-02-21T00:38:17.408Z,3.40
2023-02-21T00:41:57.775Z,3.70
2023-02-21T00:45:36.687Z,3.30
2023-02-21T00:49:15.475Z,3.30
2023-02-21T00:52:54.435Z,3.50
2023-02-21T00:56:33.362Z,3.50
2023-02-21T01:00:14.201Z,3.23
2023-02-21T01:03:53.171Z,3.43
2023-02-21T01:07:32.151Z,3.00
2023-02-21T01:11:11.893Z,3.10
2023-02-21T01:14:50.852Z,2.80
2023-02-21T01:18:31.508Z,3.10
2023-02-21T01:22:10.724Z,3.03
2023-02-21T01:25:49.815Z,2.90
2023-02-21T01:29:29.212Z,2.80
2023-02-21T01:33:08.088Z,2.73
2023-02-21T01:36:49.123Z,2.63
2023-02-21T01:40:33.135Z,2.53
2023-02-21T01:44:19.889Z,2.27
2023-02-21T01:48:00.111Z,1.83
2023-02-21T01:51:42.169Z,2.27
2023-02-21T01:55:24.435Z,2.07
2023-02-21T01:59:05.273Z,1.97
2023-02-21T02:02:50.110Z,1.77
2023-02-21T02:06:32.739Z,1.70
2023-02-21T02:10:14.518Z,2.40
2023-02-21T02:13:57.116Z,2.07
2023-02-21T02:17:36.208Z,2.10
2023-02-21T02:21:50.521Z,2.27
2023-02-21T02:25:26.611Z,2.30
2023-02-21T02:29:09.541Z,2.17
2023-02-21T02:32:57.894Z,2.03
2023-02-21T02:36:24.755Z,1.93
2023-02-21T02:39:53.404Z,2.27
2023-02-21T02:43:21.235Z,2.20
2023-02-21T02:46:46.555Z,2.20
2023-02-21T02:50:10.765Z,1.90
2023-02-21T02:53:34.054Z,1.60
2023-02-21T02:56:56.303Z,1.90
2023-02-21T03:00:19.045Z,1.60
2023-02-21T03:04:05.720Z,1.47
2023-02-21T03:07:36.573Z,1.23
2023-02-21T03:11:07.926Z,1.20
2023-02-21T03:14:37.634Z,1.20
2023-02-21T03:18:06.853Z,1.97
2023-02-21T03:21:32.866Z,1.80
2023-02-21T03:24:56.779Z,1.97
2023-02-21T03:28:21.220Z,1.83
2023-02-21T03:31:47.509Z,1.30
2023-02-21T03:35:09.579Z,1.00
2023-02-21T03:38:33.502Z,1.10
2023-02-21T03:41:55.431Z,1.00
2023-02-21T03:45:19.383Z,0.90
2023-02-21T03:48:54.131Z,0.80
2023-02-21T03:52:21.445Z,0.70
2023-02-21T03:55:43.436Z,0.50
2023-02-21T03:59:10.828Z,0.50
2023-02-21T04:02:34.384Z,0.50
2023-02-21T04:05:56.099Z,0.40
2023-02-21T04:09:18.051Z,0.40
2023-02-21T04:12:40.133Z,0.30
2023-02-21T04:16:02.013Z,0.27
2023-02-21T04:19:25.283Z,0.30
2023-02-21T04:22:54.477Z,0.30
2023-02-21T04:26:21.009Z,0.30
2023-02-21T04:29:45.287Z,0.20
2023-02-21T04:33:07.452Z,0.30
2023-02-21T04:36:31.295Z,0.40
2023-02-21T04:39:52.931Z,0.20
2023-02-21T04:43:14.968Z,0.30
2023-02-21T04:46:36.408Z,0.40
2023-02-21T04:49:58.736Z,0.40
2023-02-21T04:53:21.710Z,0.40
2023-02-21T04:56:43.154Z,0.40
2023-02-21T05:00:07.303Z,0.50
2023-02-21T05:03:29.131Z,0.40
2023-02-21T05:06:50.902Z,0.63
2023-02-21T05:10:15.902Z,0.40
2023-02-21T05:13:37.555Z,0.40
2023-02-21T05:16:59.370Z,0.47
2023-02-21T05:20:21.596Z,0.50
2023-02-21T05:23:55.848Z,0.40
2023-02-21T05:27:21.342Z,0.40
2023-02-21T05:30:42.946Z,0.50
2023-02-21T05:34:04.775Z,0.57
2023-02-21T05:37:26.783Z,0.40
2023-02-21T05:40:48.759Z,0.40
2023-02-21T05:44:11.837Z,0.50
2023-02-21T05:47:34.907Z,0.60
2023-02-21T05:50:56.573Z,0.50
2023-02-21T05:54:21.300Z,0.73
2023-02-21T05:57:43.182Z,0.50
2023-02-21T06:01:06.809Z,0.60
2023-02-21T06:04:28.798Z,0.60
2023-02-21T06:07:50.693Z,0.63
2023-02-21T06:11:12.983Z,0.60
2023-02-21T06:14:34.925Z,0.40
2023-02-21T06:17:58.139Z,0.50
2023-02-21T06:21:20.109Z,0.80
2023-02-21T06:24:41.693Z,0.80
2023-02-21T06:28:03.606Z,0.77
2023-02-21T06:31:25.683Z,0.60
2023-02-21T06:34:48.475Z,0.70
2023-02-21T06:38:10.326Z,0.70
2023-02-21T06:41:32.886Z,0.93
2023-02-21T06:44:54.513Z,0.90
2023-02-21T06:48:17.034Z,0.60
2023-02-21T06:51:43.023Z,0.70
2023-02-21T06:55:05.416Z,0.60
2023-02-21T06:58:27.453Z,0.97
2023-02-21T07:01:49.575Z,1.30
2023-02-21T07:05:13.188Z,0.87
2023-02-21T07:08:36.269Z,0.80
2023-02-21T07:11:58.294Z,1.60
2023-02-21T07:15:20.334Z,0.70
2023-02-21T07:18:41.902Z,0.70
2023-02-21T07:22:04.458Z,1.40
2023-02-21T07:25:27.782Z,1.00
2023-02-21T07:28:50.667Z,1.80
2023-02-21T07:32:12.584Z,1.20
2023-02-21T07:35:34.845Z,0.87
2023-02-21T07:38:56.403Z,1.60
2023-02-21T07:42:19.627Z,1.23
2023-02-21T07:45:41.136Z,1.40
2023-02-21T07:49:03.052Z,1.03
2023-02-21T07:52:24.697Z,1.50
2023-02-21T07:55:46.171Z,1.13
2023-02-21T07:59:09.791Z,1.20
2023-02-21T08:02:31.706Z,1.60
2023-02-21T08:05:53.456Z,1.80
2023-02-21T08:09:15.407Z,2.10
2023-02-21T08:12:37.227Z,2.20
2023-02-21T08:16:00.451Z,2.80
2023-02-21T08:19:21.934Z,2.30
2023-02-21T08:22:43.249Z,2.47
2023-02-21T08:26:06.253Z,3.07
2023-02-21T08:29:28.986Z,3.10
2023-02-21T08:32:52.206Z,2.20
2023-02-21T08:36:13.928Z,2.20
2023-02-21T08:39:35.768Z,3.07
2023-02-21T08:42:58.462Z,2.63
2023-02-21T08:46:20.151Z,2.80
2023-02-21T08:49:45.081Z,2.70
2023-02-21T08:53:06.894Z,2.57
2023-02-21T08:56:30.742Z,2.10
2023-02-21T08:59:52.651Z,2.73
2023-02-21T09:03:14.402Z,2.30
2023-02-21T09:06:37.559Z,2.47
2023-02-21T09:10:01.149Z,2.53
2023-02-21T09:13:22.813Z,3.17
2023-02-21T09:16:47.670Z,3.27
2023-02-21T09:20:12.408Z,2.20
2023-02-21T09:23:35.216Z,2.60
2023-02-21T09:26:59.247Z,2.43
2023-02-21T09:30:24.554Z,3.47
2023-02-21T09:33:46.549Z,2.90
2023-02-21T09:37:08.421Z,3.13
2023-02-21T09:40:37.546Z,2.43
2023-02-21T09:44:00.888Z,2.50
2023-02-21T09:47:30.079Z,3.13
2023-02-21T09:50:55.540Z,3.17
2023-02-21T09:54:24.565Z,2.53
2023-02-21T09:57:47.625Z,2.80
2023-02-21T10:01:21.891Z,2.97
2023-02-21T10:05:01.853Z,3.37
2023-02-21T10:08:37.038Z,3.80
2023-02-21T10:12:09.776Z,2.83
2023-02-21T10:15:50.893Z,3.70
2023-02-21T10:19:20.167Z,3.10
2023-02-21T10:22:47.574Z,2.90
2023-02-21T10:26:12.758Z,2.93
2023-02-21T10:29:44.001Z,3.07
2023-02-21T10:33:08.587Z,2.80
2023-02-21T10:36:30.314Z,2.40
2023-02-21T10:39:56.214Z,3.20
2023-02-21T10:43:20.532Z,3.10
2023-02-21T10:46:46.255Z,2.73
2023-02-21T10:50:12.100Z,2.83
2023-02-21T10:53:36.694Z,2.50
2023-02-21T10:56:58.261Z,3.33
2023-02-21T11:00:27.580Z,2.90
2023-02-21T11:03:52.248Z,2.77
2023-02-21T11:07:16.050Z,2.90
2023-02-21T11:10:41.593Z,3.03
2023-02-21T11:14:22.633Z,3.57
2023-02-21T11:17:47.028Z,3.13
2023-02-21T11:21:16.507Z,3.17
2023-02-21T11:24:48.800Z,2.20
2023-02-21T11:28:21.271Z,2.63
2023-02-21T11:31:43.457Z,3.70
2023-02-21T11:35:16.613Z,3.40
2023-02-21T11:38:40.801Z,2.30
2023-02-21T11:42:17.492Z,2.87
2023-02-21T11:45:42.479Z,2.40
2023-02-21T11:49:09.726Z,2.67
2023-02-21T11:52:36.352Z,2.97
2023-02-21T11:56:08.207Z,2.97
2023-02-21T11:59:42.377Z,2.77
2023-02-21T12:03:22.235Z,2.97
2023-02-21T12:06:52.228Z,3.00
2023-02-21T12:10:34.202Z,3.17
2023-02-21T12:14:08.945Z,2.77
2023-02-21T12:17:54.542Z,3.97
2023-02-21T12:21:35.926Z,3.20
2023-02-21T12:25:06.692Z,3.33
2023-02-21T12:28:42.286Z,3.83
2023-02-21T12:32:34.409Z,3.57
2023-02-21T12:36:13.752Z,4.30
2023-02-21T12:40:02.168Z,2.90
2023-02-21T12:43:36.661Z,3.23
2023-02-21T12:47:01.998Z,3.07
2023-02-21T12:50:26.331Z,2.90
2023-02-21T12:53:54.942Z,3.20
2023-02-21T12:57:21.553Z,3.07
2023-02-21T13:00:49.980Z,3.50
2023-02-21T13:04:21.641Z,3.10
2023-02-21T13:07:48.933Z,3.63
2023-02-21T13:11:16.714Z,3.40
2023-02-21T13:14:47.065Z,3.00
2023-02-21T13:18:12.721Z,3.13
2023-02-21T13:21:52.578Z,3.07
2023-02-21T13:25:26.256Z,3.37
2023-02-21T13:28:53.551Z,3.67
2023-02-21T13:32:20.116Z,3.43
2023-02-21T13:35:41.991Z,3.53
2023-02-21T13:39:11.939Z,3.33
2023-02-21T13:42:35.792Z,3.40
2023-02-21T13:46:26.677Z,3.70
2023-02-21T13:49:51.853Z,2.90
2023-02-21T13:53:18.670Z,3.40
2023-02-21T13:56:44.803Z,3.70
2023-02-21T14:00:36.450Z,3.90
2023-02-21T14:03:59.737Z,4.07
2023-02-21T14:07:43.859Z,2.73
2023-02-21T14:11:15.715Z,2.90
2023-02-21T14:14:40.680Z,2.95
2023-02-21T14:18:02.389Z,3.00
2023-02-21T14:21:30.474Z,3.33
2023-02-21T14:25:05.411Z,3.15
2023-02-21T14:29:00.406Z,3.50
2023-02-21T14:32:36.236Z,3.50
2023-02-21T14:36:04.380Z,4.10
2023-02-21T14:39:34.244Z,3.67
2023-02-21T14:43:12.203Z,3.17
2023-02-21T14:47:25.690Z,3.67
2023-02-21T14:51:09.935Z,3.37
2023-02-21T14:55:20.291Z,3.83
2023-02-21T14:59:08.452Z,4.20
2023-02-21T15:02:37.199Z,3.60
2023-02-21T15:06:04.970Z,2.90
2023-02-21T15:09:27.127Z,3.57
2023-02-21T15:12:53.487Z,3.60
2023-02-21T15:16:17.314Z,3.93
2023-02-21T15:19:39.170Z,3.13
2023-02-21T15:23:04.290Z,3.50
2023-02-21T15:26:30.025Z,4.20
2023-02-21T15:30:07.494Z,3.23
2023-02-21T15:33:33.357Z,3.50
2023-02-21T15:37:00.442Z,3.40
2023-02-21T15:40:25.095Z,4.37
2023-02-21T15:43:51.162Z,3.43
2023-02-21T15:47:17.860Z,4.33
2023-02-21T15:50:43.930Z,3.43
2023-02-21T15:54:10.356Z,3.95
2023-02-21T15:57:32.501Z,4.23
2023-02-21T16:01:08.777Z,3.90
2023-02-21T16:04:37.070Z,3.93
2023-02-21T16:08:04.410Z,3.73
2023-02-21T16:11:28.957Z,4.15
2023-02-21T16:14:59.034Z,3.97
2023-02-21T16:18:20.564Z,3.83
2023-02-21T16:21:43.846Z,5.30
2023-02-21T16:25:15.240Z,4.00
2023-02-21T16:28:38.293Z,4.40
2023-02-21T16:31:59.888Z,4.63
2023-02-21T16:35:23.665Z,3.97
2023-02-21T16:38:46.668Z,3.78
2023-02-21T16:42:08.806Z,4.77
2023-02-21T16:45:31.543Z,3.43
2023-02-21T16:48:54.979Z,3.83
2023-02-21T16:52:18.505Z,4.00
2023-02-21T16:55:42.454Z,5.33
2023-02-21T16:59:04.864Z,5.83
2023-02-21T17:02:26.673Z,3.93
2023-02-21T17:05:48.904Z,4.07
2023-02-21T17:09:23.006Z,4.67
2023-02-21T17:12:49.921Z,3.87
2023-02-21T17:16:11.991Z,3.50
2023-02-21T17:19:33.792Z,4.60
2023-02-21T17:22:58.366Z,5.57
2023-02-21T17:26:19.889Z,6.83
2023-02-21T17:29:43.195Z,10.90
2023-02-21T17:33:05.270Z,9.70
2023-02-21T17:36:28.602Z,7.90
2023-02-21T17:39:53.502Z,8.73
2023-02-21T17:43:17.189Z,6.47
2023-02-21T17:46:40.569Z,6.53
2023-02-21T17:50:03.845Z,4.80
2023-02-21T17:53:25.436Z,4.53
2023-02-21T17:56:47.251Z,4.53
2023-02-21T18:00:13.529Z,4.17
2023-02-21T18:03:37.612Z,6.53
2023-02-21T18:06:59.496Z,5.27
2023-02-21T18:10:23.017Z,4.03
2023-02-21T18:13:44.774Z,3.97
2023-02-21T18:17:06.337Z,4.20
2023-02-21T18:20:29.527Z,4.00
2023-02-21T18:23:51.972Z,4.00
2023-02-21T18:27:15.657Z,4.23
2023-02-21T18:30:37.201Z,4.17
2023-02-21T18:33:59.202Z,4.50
2023-02-21T18:37:22.287Z,6.30
2023-02-21T18:40:46.187Z,3.87
2023-02-21T18:44:07.931Z,3.83
2023-02-21T18:47:31.304Z,3.63
2023-02-21T18:50:53.184Z,3.80
2023-02-21T18:54:16.150Z,4.00
2023-02-21T18:57:39.917Z,5.30
2023-02-21T19:01:01.804Z,4.23
2023-02-21T19:04:23.937Z,5.67
2023-02-21T19:07:45.813Z,6.93
2023-02-21T19:11:09.741Z,11.93
2023-02-21T19:14:31.859Z,6.23
2023-02-21T19:17:53.677Z,5.13
2023-02-21T19:21:15.930Z,6.77
2023-02-21T19:24:37.652Z,6.50
2023-02-21T19:28:01.305Z,8.33
2023-02-21T19:31:23.134Z,6.80
2023-02-21T19:34:44.721Z,5.03
2023-02-21T19:38:10.427Z,4.27
2023-02-21T19:41:32.008Z,4.93
2023-02-21T19:44:56.166Z,4.93
2023-02-21T19:48:18.177Z,5.60
2023-02-21T19:51:40.616Z,5.60
2023-02-21T19:55:02.343Z,5.77
2023-02-21T19:58:24.031Z,4.93
2023-02-21T20:01:47.313Z,3.87
2023-02-21T20:05:09.832Z,4.80
2023-02-21T20:08:31.612Z,4.97
2023-02-21T20:11:53.325Z,5.50
2023-02-21T20:15:15.229Z,5.70
2023-02-21T20:18:38.689Z,7.93
2023-02-21T20:22:00.291Z,7.53
2023-02-21T20:25:23.072Z,7.60
2023-02-21T20:28:44.949Z,7.70
2023-02-21T20:32:08.083Z,5.63
2023-02-21T20:35:31.462Z,5.77
2023-02-21T20:38:53.415Z,5.17
2023-02-21T20:42:15.507Z,4.63
2023-02-21T20:45:38.521Z,4.97
2023-02-21T20:49:01.760Z,4.80
2023-02-21T20:52:25.215Z,5.10
2023-02-21T20:55:47.021Z,4.67
2023-02-21T20:59:15.828Z,3.90
2023-02-21T21:02:38.917Z,4.23
2023-02-21T21:06:00.455Z,3.20
2023-02-21T21:09:29.014Z,5.30
2023-02-21T21:12:51.544Z,9.07
2023-02-21T21:16:13.741Z,12.87
2023-02-21T21:19:36.878Z,9.23
2023-02-21T21:22:58.876Z,6.90
2023-02-21T21:26:22.664Z,5.37
2023-02-21T21:29:46.264Z,5.10
2023-02-21T21:33:08.611Z,5.10
2023-02-21T21:36:30.426Z,7.80
2023-02-21T21:39:55.003Z,9.37
2023-02-21T21:43:18.274Z,7.83
2023-02-21T21:46:45.672Z,7.80
2023-02-21T21:50:08.363Z,8.33
2023-02-21T21:53:30.306Z,5.93
2023-02-21T21:56:53.771Z,5.63
2023-02-21T22:00:21.736Z,4.50
2023-02-21T22:03:44.447Z,3.70
2023-02-21T22:07:07.786Z,4.30
2023-02-21T22:10:30.400Z,4.47
2023-02-21T22:13:52.076Z,3.43
2023-02-21T22:17:15.177Z,4.00
2023-02-21T22:20:37.029Z,3.90
2023-02-21T22:23:59.487Z,3.33
2023-02-21T22:27:20.990Z,4.07
2023-02-21T22:30:42.511Z,4.17
2023-02-21T22:34:05.763Z,4.53
2023-02-21T22:37:28.021Z,3.87
2023-02-21T22:40:49.967Z,3.80
2023-02-21T22:44:12.134Z,3.87
2023-02-21T22:47:33.837Z,3.10
2023-02-21T22:50:57.525Z,3.77
2023-02-21T22:54:19.137Z,3.40
2023-02-21T22:57:40.595Z,3.47
2023-02-21T23:01:07.389Z,4.07
2023-02-21T23:04:31.005Z,3.23
2023-02-21T23:07:57.715Z,3.17
2023-02-21T23:11:20.025Z,4.23
2023-02-21T23:14:43.293Z,4.13
2023-02-21T23:18:05.572Z,4.43
2023-02-21T23:21:27.268Z,4.63
2023-02-21T23:24:50.582Z,4.37
2023-02-21T23:28:15.382Z,3.90
2023-02-21T23:31:37.440Z,3.60
2023-02-21T23:34:59.586Z,4.67
2023-02-21T23:38:23.983Z,4.20
2023-02-21T23:41:49.137Z,4.97
2023-02-21T23:45:12.203Z,3.70
2023-02-21T23:48:34.424Z,3.43
2023-02-21T23:51:56.228Z,3.33
2023-02-21T23:55:24.997Z,2.80
2023-02-21T23:58:50.029Z,3.10
